createdAt,value
2022-12-31T00:00:07.898Z,15.49
2022-12-31T00:02:35.001Z,15.51
2022-12-31T00:05:01.833Z,15.51
2022-12-31T00:07:28.462Z,15.53
2022-12-31T00:09:55.025Z,15.53
2022-12-31T00:12:21.573Z,15.54
2022-12-31T00:14:48.158Z,15.55
2022-12-31T00:17:14.773Z,15.57
2022-12-31T00:19:41.356Z,15.58
2022-12-31T00:22:07.928Z,15.59
2022-12-31T00:24:35.911Z,15.61
2022-12-31T00:27:02.569Z,15.62
2022-12-31T00:29:29.106Z,15.63
2022-12-31T00:31:55.743Z,15.64
2022-12-31T00:34:22.361Z,15.67
2022-12-31T00:36:49.199Z,15.65
2022-12-31T00:39:15.788Z,15.67
2022-12-31T00:41:44.044Z,15.66
2022-12-31T00:44:13.962Z,15.67
2022-12-31T00:49:06.236Z,15.66
2022-12-31T00:51:33.072Z,15.66
2022-12-31T00:53:59.644Z,15.65
2022-12-31T00:56:28.879Z,15.63
2022-12-31T00:58:55.490Z,15.63
2022-12-31T01:01:24.444Z,15.63
2022-12-31T01:03:54.239Z,15.61
2022-12-31T01:06:21.368Z,15.61
2022-12-31T01:08:49.243Z,15.59
2022-12-31T01:11:19.036Z,15.58
2022-12-31T01:14:08.798Z,15.56
2022-12-31T01:16:42.167Z,15.55
2022-12-31T01:19:12.616Z,15.52
2022-12-31T01:21:40.260Z,15.51
2022-12-31T01:24:08.674Z,15.54
2022-12-31T01:26:35.537Z,15.53
2022-12-31T01:29:02.269Z,15.56
2022-12-31T01:31:28.917Z,15.56
2022-12-31T01:33:55.563Z,15.57
2022-12-31T01:36:26.171Z,15.57
2022-12-31T01:38:55.655Z,15.59
2022-12-31T01:41:31.291Z,15.60
2022-12-31T01:44:02.783Z,15.61
2022-12-31T01:46:35.769Z,15.64
2022-12-31T01:49:26.198Z,15.64
2022-12-31T01:51:57.255Z,15.68
2022-12-31T01:54:25.224Z,15.68
2022-12-31T01:56:52.431Z,15.69
2022-12-31T01:59:19.774Z,15.70
2022-12-31T02:01:48.364Z,15.70
2022-12-31T02:04:15.604Z,15.70
2022-12-31T02:06:47.304Z,15.68
2022-12-31T02:09:14.023Z,15.69
2022-12-31T02:11:40.655Z,15.68
2022-12-31T02:14:12.393Z,15.65
2022-12-31T02:17:02.833Z,15.65
2022-12-31T02:19:51.150Z,15.64
2022-12-31T02:22:23.880Z,15.60
2022-12-31T02:25:06.800Z,15.61
2022-12-31T02:28:02.382Z,15.58
2022-12-31T02:30:31.441Z,15.56
2022-12-31T02:33:20.524Z,15.54
2022-12-31T02:35:47.038Z,15.54
2022-12-31T02:38:37.263Z,15.55
2022-12-31T02:41:03.935Z,15.54
2022-12-31T02:43:30.653Z,15.53
2022-12-31T02:46:21.683Z,15.57
2022-12-31T02:49:07.958Z,15.58
2022-12-31T02:51:51.352Z,15.59
2022-12-31T02:54:27.405Z,15.60
2022-12-31T02:57:13.214Z,15.62
2022-12-31T03:00:08.877Z,15.62
2022-12-31T03:02:38.404Z,15.65
2022-12-31T03:05:05.444Z,15.66
2022-12-31T03:07:33.056Z,15.68
2022-12-31T03:10:01.055Z,15.69
2022-12-31T03:12:48.392Z,15.69
2022-12-31T03:15:21.045Z,15.70
2022-12-31T03:17:54.658Z,15.72
2022-12-31T03:20:41.880Z,15.72
2022-12-31T03:23:11.247Z,15.72
2022-12-31T03:25:40.815Z,15.72
2022-12-31T03:28:13.254Z,15.74
2022-12-31T03:30:42.099Z,15.71
2022-12-31T03:33:09.082Z,15.70
2022-12-31T03:35:36.912Z,15.70
2022-12-31T03:38:04.864Z,15.70
2022-12-31T03:40:34.308Z,15.67
2022-12-31T03:43:00.891Z,15.66
2022-12-31T03:45:27.542Z,15.65
2022-12-31T03:47:54.137Z,15.64
2022-12-31T03:50:20.982Z,15.62
2022-12-31T03:52:47.624Z,15.60
2022-12-31T03:55:14.458Z,15.59
2022-12-31T03:57:41.149Z,15.58
2022-12-31T04:00:10.529Z,15.57
2022-12-31T04:02:37.323Z,15.57
2022-12-31T04:05:04.253Z,15.55
2022-12-31T04:07:30.847Z,15.57
2022-12-31T04:09:57.830Z,15.58
2022-12-31T04:12:24.390Z,15.59
2022-12-31T04:14:51.540Z,15.60
2022-12-31T04:17:18.097Z,15.61
2022-12-31T04:19:44.750Z,15.63
2022-12-31T04:22:11.298Z,15.64
2022-12-31T04:24:37.891Z,15.66
2022-12-31T04:27:07.785Z,15.68
2022-12-31T04:29:35.627Z,15.71
2022-12-31T04:32:02.996Z,15.74
2022-12-31T04:34:29.564Z,15.75
2022-12-31T04:36:56.181Z,15.75
2022-12-31T04:39:22.941Z,15.78
2022-12-31T04:41:49.785Z,15.78
2022-12-31T04:44:16.585Z,15.78
2022-12-31T04:46:43.255Z,15.81
2022-12-31T04:49:10.124Z,15.81
2022-12-31T04:51:36.877Z,15.80
2022-12-31T04:54:03.464Z,15.79
2022-12-31T04:56:30.516Z,15.78
2022-12-31T04:58:57.077Z,15.77
2022-12-31T05:01:24.242Z,15.76
2022-12-31T05:03:51.442Z,15.75
2022-12-31T05:06:21.081Z,15.71
2022-12-31T05:08:48.158Z,15.71
2022-12-31T05:11:15.511Z,15.70
2022-12-31T05:13:42.519Z,15.69
2022-12-31T05:16:09.736Z,15.66
2022-12-31T05:18:36.550Z,15.64
2022-12-31T05:21:03.339Z,15.63
2022-12-31T05:23:29.901Z,15.62
2022-12-31T05:25:56.721Z,15.62
2022-12-31T05:28:23.298Z,15.62
2022-12-31T05:30:50.883Z,15.61
2022-12-31T05:33:18.768Z,15.60
2022-12-31T05:35:45.604Z,15.63
2022-12-31T05:38:12.170Z,15.65
2022-12-31T05:40:41.859Z,15.66
2022-12-31T05:43:08.714Z,15.67
2022-12-31T05:45:35.450Z,15.70
2022-12-31T05:48:02.140Z,15.70
2022-12-31T05:50:28.741Z,15.72
2022-12-31T05:52:55.276Z,15.73
2022-12-31T05:55:21.857Z,15.76
2022-12-31T05:57:48.434Z,15.77
2022-12-31T06:00:15.478Z,15.77
2022-12-31T06:02:42.185Z,15.79
2022-12-31T06:05:09.244Z,15.80
2022-12-31T06:07:35.823Z,15.81
2022-12-31T06:10:02.416Z,15.80
2022-12-31T06:12:29.027Z,15.81
2022-12-31T06:14:55.704Z,15.81
2022-12-31T06:17:22.577Z,15.81
2022-12-31T06:19:49.168Z,15.81
2022-12-31T06:22:15.972Z,15.80
2022-12-31T06:24:42.595Z,15.80
2022-12-31T06:27:09.581Z,15.80
2022-12-31T06:29:36.269Z,15.80
2022-12-31T06:32:02.887Z,15.80
2022-12-31T06:34:29.447Z,15.78
2022-12-31T06:36:56.076Z,15.77
2022-12-31T06:39:22.665Z,15.75
2022-12-31T06:41:49.229Z,15.74
2022-12-31T06:44:15.846Z,15.72
2022-12-31T06:46:42.460Z,15.69
2022-12-31T06:49:09.061Z,15.67
2022-12-31T06:51:35.648Z,15.67
2022-12-31T06:54:02.281Z,15.65
2022-12-31T06:56:34.349Z,15.67
2022-12-31T06:59:02.622Z,15.68
2022-12-31T07:01:47.332Z,15.69
2022-12-31T07:04:32.502Z,15.70
2022-12-31T07:07:29.223Z,15.72
2022-12-31T07:10:17.430Z,15.72
2022-12-31T07:12:49.661Z,15.72
2022-12-31T07:15:53.673Z,15.77
2022-12-31T07:18:29.140Z,15.78
2022-12-31T07:20:55.959Z,15.80
2022-12-31T07:23:22.903Z,15.80
2022-12-31T07:26:35.751Z,15.82
2022-12-31T07:29:29.577Z,15.83
2022-12-31T07:32:24.857Z,15.82
2022-12-31T07:35:04.808Z,15.83
2022-12-31T07:38:02.407Z,15.83
2022-12-31T07:40:47.858Z,15.83
2022-12-31T07:43:22.813Z,15.83
2022-12-31T07:45:55.183Z,15.82
2022-12-31T07:48:26.569Z,15.81
2022-12-31T07:50:54.817Z,15.80
2022-12-31T07:53:22.691Z,15.79
2022-12-31T07:56:09.537Z,15.78
2022-12-31T07:59:13.017Z,15.76
2022-12-31T08:02:00.079Z,15.75
2022-12-31T08:04:29.801Z,15.75
2022-12-31T08:07:18.520Z,15.75
2022-12-31T08:10:00.511Z,15.74
2022-12-31T08:12:32.912Z,15.74
2022-12-31T08:14:59.650Z,15.72
2022-12-31T08:17:26.377Z,15.74
2022-12-31T08:19:53.165Z,15.74
2022-12-31T08:22:37.241Z,15.75
2022-12-31T08:25:26.432Z,15.76
2022-12-31T08:28:14.356Z,15.77
2022-12-31T08:30:59.533Z,15.78
2022-12-31T08:33:48.865Z,15.79
2022-12-31T08:36:34.577Z,15.83
2022-12-31T08:39:37.770Z,15.83
2022-12-31T08:42:13.549Z,15.84
2022-12-31T08:44:52.829Z,15.86
2022-12-31T08:47:25.227Z,15.88
2022-12-31T08:49:52.089Z,15.88
2022-12-31T08:52:26.439Z,15.87
2022-12-31T08:54:53.643Z,15.89
2022-12-31T08:57:28.972Z,15.90
2022-12-31T09:00:07.081Z,15.90
2022-12-31T09:02:48.974Z,15.91
2022-12-31T09:05:44.066Z,15.89
2022-12-31T09:08:19.593Z,15.89
2022-12-31T09:10:58.826Z,15.88
2022-12-31T09:13:33.890Z,15.88
2022-12-31T09:16:14.150Z,15.86
2022-12-31T09:18:42.113Z,15.86
2022-12-31T09:21:11.051Z,15.84
2022-12-31T09:23:37.860Z,15.83
2022-12-31T09:26:32.440Z,15.83
2022-12-31T09:29:23.294Z,15.81
2022-12-31T09:31:55.582Z,15.79
2022-12-31T09:34:41.664Z,15.80
2022-12-31T09:37:16.841Z,15.79
2022-12-31T09:39:46.667Z,15.78
2022-12-31T09:42:31.797Z,15.77
2022-12-31T09:45:02.923Z,15.79
2022-12-31T09:47:51.342Z,15.80
2022-12-31T09:50:42.546Z,15.79
2022-12-31T09:53:19.005Z,15.82
2022-12-31T09:56:11.526Z,15.84
2022-12-31T09:59:10.352Z,15.86
2022-12-31T10:01:50.795Z,15.89
2022-12-31T10:04:35.567Z,15.90
2022-12-31T10:07:30.838Z,15.93
2022-12-31T10:10:03.494Z,15.94
2022-12-31T10:13:16.573Z,15.96
2022-12-31T10:16:42.049Z,15.97
2022-12-31T10:19:36.120Z,15.98
2022-12-31T10:22:29.648Z,15.99
2022-12-31T10:24:58.856Z,15.98
2022-12-31T10:27:44.177Z,15.99
2022-12-31T10:30:20.166Z,15.99
2022-12-31T10:33:15.744Z,15.98
2022-12-31T10:35:50.783Z,15.97
2022-12-31T10:38:26.336Z,15.97
2022-12-31T10:40:55.869Z,15.98
2022-12-31T10:43:40.749Z,15.97
2022-12-31T10:46:37.900Z,15.94
2022-12-31T10:49:58.860Z,15.93
2022-12-31T10:52:51.097Z,15.91
2022-12-31T10:55:27.193Z,15.90
2022-12-31T10:58:24.893Z,15.88
2022-12-31T11:01:12.508Z,15.87
2022-12-31T11:03:41.768Z,15.86
2022-12-31T11:06:26.273Z,15.85
2022-12-31T11:09:34.411Z,15.86
2022-12-31T11:12:44.114Z,15.88
2022-12-31T11:15:21.651Z,15.89
2022-12-31T11:18:02.380Z,15.90
2022-12-31T11:20:48.919Z,15.90
2022-12-31T11:23:30.782Z,15.92
2022-12-31T11:26:34.198Z,15.94
2022-12-31T11:29:42.624Z,15.95
2022-12-31T11:32:40.042Z,15.97
2022-12-31T11:35:21.119Z,15.99
2022-12-31T11:37:50.007Z,16.01
2022-12-31T11:40:28.724Z,16.04
2022-12-31T11:42:58.990Z,16.06
2022-12-31T11:45:54.081Z,16.07
2022-12-31T11:48:30.053Z,16.09
2022-12-31T11:51:10.633Z,16.10
2022-12-31T11:53:49.475Z,16.09
2022-12-31T11:56:19.937Z,16.11
2022-12-31T11:58:49.904Z,16.10
2022-12-31T12:01:31.209Z,16.11
2022-12-31T12:03:58.032Z,16.11
2022-12-31T12:06:28.703Z,16.08
2022-12-31T12:09:11.519Z,16.08
2022-12-31T12:11:39.375Z,16.05
2022-12-31T12:14:32.340Z,16.04
2022-12-31T12:17:04.860Z,16.02
2022-12-31T12:19:33.966Z,16.00
2022-12-31T12:22:12.177Z,16.00
2022-12-31T12:24:39.095Z,15.98
2022-12-31T12:27:05.712Z,15.98
2022-12-31T12:29:34.571Z,15.97
2022-12-31T12:32:15.503Z,15.96
2022-12-31T12:34:49.129Z,15.95
2022-12-31T12:37:25.171Z,16.00
2022-12-31T12:40:00.913Z,16.07
2022-12-31T12:42:27.957Z,16.13
2022-12-31T12:45:02.133Z,16.13
2022-12-31T12:47:28.825Z,16.18
2022-12-31T12:49:55.645Z,16.17
2022-12-31T12:52:32.656Z,16.15
2022-12-31T12:55:26.318Z,16.11
2022-12-31T12:58:00.346Z,16.11
2022-12-31T13:00:54.190Z,16.09
2022-12-31T13:04:07.289Z,16.12
2022-12-31T13:06:39.880Z,16.12
2022-12-31T13:09:25.780Z,16.13
2022-12-31T13:12:08.127Z,16.14
2022-12-31T13:14:47.904Z,16.13
2022-12-31T13:18:01.746Z,16.12
2022-12-31T13:20:35.546Z,16.14
2022-12-31T13:23:21.033Z,16.14
2022-12-31T13:25:59.403Z,16.15
2022-12-31T13:28:26.776Z,16.14
2022-12-31T13:31:06.359Z,16.15
2022-12-31T13:33:37.860Z,16.14
2022-12-31T13:36:15.605Z,16.14
2022-12-31T13:38:53.178Z,16.13
2022-12-31T13:41:42.332Z,16.10
2022-12-31T13:44:08.859Z,16.10
2022-12-31T13:46:48.392Z,16.09
2022-12-31T13:49:19.365Z,16.07
2022-12-31T13:52:27.309Z,16.06
2022-12-31T13:55:01.908Z,16.03
2022-12-31T13:58:05.924Z,16.02
2022-12-31T14:00:36.040Z,16.02
2022-12-31T14:03:11.640Z,16.02
2022-12-31T14:05:50.997Z,16.02
2022-12-31T14:08:17.558Z,16.03
2022-12-31T14:10:56.751Z,16.01
2022-12-31T14:13:42.102Z,16.04
2022-12-31T14:16:20.626Z,16.05
2022-12-31T14:19:29.154Z,16.07
2022-12-31T14:22:04.673Z,16.07
2022-12-31T14:24:37.371Z,16.08
2022-12-31T14:27:09.212Z,16.10
2022-12-31T14:29:41.488Z,16.09
2022-12-31T14:32:32.825Z,16.13
2022-12-31T14:35:03.504Z,16.14
2022-12-31T14:37:38.810Z,16.15
2022-12-31T14:40:26.649Z,16.15
2022-12-31T14:43:14.830Z,16.15
2022-12-31T14:46:15.430Z,16.15
2022-12-31T14:48:48.784Z,16.14
2022-12-31T14:51:15.470Z,16.16
2022-12-31T14:53:51.987Z,16.16
2022-12-31T14:56:41.498Z,16.15
2022-12-31T14:59:33.366Z,16.15
2022-12-31T15:02:02.385Z,16.14
2022-12-31T15:04:34.624Z,16.13
2022-12-31T15:07:12.223Z,16.12
2022-12-31T15:09:58.970Z,16.13
2022-12-31T15:13:03.380Z,16.12
2022-12-31T15:15:35.637Z,16.13
2022-12-31T15:18:26.709Z,16.13
2022-12-31T15:21:15.080Z,16.11
2022-12-31T15:23:46.136Z,16.12
2022-12-31T15:26:25.432Z,16.09
2022-12-31T15:29:01.888Z,16.10
2022-12-31T15:31:28.736Z,16.09
2022-12-31T15:34:24.208Z,16.08
2022-12-31T15:36:57.093Z,16.07
2022-12-31T15:39:32.740Z,16.09
2022-12-31T15:44:53.185Z,16.07
2022-12-31T15:47:39.955Z,16.09
2022-12-31T15:50:08.778Z,16.09
2022-12-31T15:52:48.096Z,16.11
2022-12-31T15:55:27.381Z,16.13
2022-12-31T15:57:56.924Z,16.11
2022-12-31T16:00:24.016Z,16.12
2022-12-31T16:02:53.046Z,16.14
2022-12-31T16:05:24.777Z,16.15
2022-12-31T16:07:56.243Z,16.15
2022-12-31T16:10:27.252Z,16.17
2022-12-31T16:12:55.585Z,16.16
2022-12-31T16:15:25.024Z,16.18
2022-12-31T16:18:11.012Z,16.18
2022-12-31T16:20:46.044Z,16.18
2022-12-31T16:23:22.897Z,16.19
2022-12-31T16:25:51.269Z,16.18
2022-12-31T16:28:19.619Z,16.19
2022-12-31T16:31:04.445Z,16.19
2022-12-31T16:33:32.276Z,16.18
2022-12-31T16:36:00.857Z,16.18
2022-12-31T16:38:32.832Z,16.19
2022-12-31T16:41:02.051Z,16.16
2022-12-31T16:43:38.582Z,16.15
2022-12-31T16:46:27.680Z,16.16
2022-12-31T16:48:59.003Z,16.15
2022-12-31T16:51:29.183Z,16.14
2022-12-31T16:53:56.022Z,16.15
2022-12-31T16:56:34.979Z,16.14
2022-12-31T16:59:05.160Z,16.13
2022-12-31T17:01:34.111Z,16.15
2022-12-31T17:04:05.772Z,16.15
2022-12-31T17:06:33.697Z,16.16
2022-12-31T17:09:23.470Z,16.15
2022-12-31T17:11:56.228Z,16.15
2022-12-31T17:14:27.562Z,16.16
2022-12-31T17:17:08.205Z,16.16
2022-12-31T17:19:43.379Z,16.17
2022-12-31T17:22:36.232Z,16.17
2022-12-31T17:25:19.881Z,16.18
2022-12-31T17:27:58.150Z,16.18
2022-12-31T17:30:31.405Z,16.18
2022-12-31T17:33:03.831Z,16.19
2022-12-31T17:35:33.160Z,16.20
2022-12-31T17:38:18.017Z,16.21
2022-12-31T17:40:53.203Z,16.20
2022-12-31T17:43:22.243Z,16.21
2022-12-31T17:45:51.144Z,16.21
2022-12-31T17:48:19.347Z,16.23
2022-12-31T17:50:51.021Z,16.24
2022-12-31T17:53:17.908Z,16.24
2022-12-31T17:55:46.217Z,16.23
2022-12-31T17:58:29.447Z,16.23
2022-12-31T18:00:56.793Z,16.25
2022-12-31T18:03:23.377Z,16.22
2022-12-31T18:05:49.969Z,16.25
2022-12-31T18:08:16.553Z,16.24
2022-12-31T18:10:47.016Z,16.24
2022-12-31T18:13:20.429Z,16.24
2022-12-31T18:15:47.130Z,16.23
2022-12-31T18:18:28.211Z,16.22
2022-12-31T18:20:58.155Z,16.20
2022-12-31T18:23:35.946Z,16.21
2022-12-31T18:26:02.571Z,16.20
2022-12-31T18:28:29.289Z,16.20
2022-12-31T18:30:55.904Z,16.20
2022-12-31T18:33:23.938Z,16.19
2022-12-31T18:36:08.865Z,16.19
2022-12-31T18:38:36.089Z,16.18
2022-12-31T18:41:02.647Z,16.19
2022-12-31T18:43:29.228Z,16.18
2022-12-31T18:45:56.180Z,16.19
2022-12-31T18:48:22.735Z,16.20
2022-12-31T18:50:49.445Z,16.19
2022-12-31T18:53:21.710Z,16.22
2022-12-31T18:55:55.821Z,16.24
2022-12-31T18:58:23.015Z,16.24
2022-12-31T19:00:50.358Z,16.24
2022-12-31T19:03:20.036Z,16.24
2022-12-31T19:05:49.788Z,16.25
2022-12-31T19:08:23.223Z,16.26
2022-12-31T19:10:51.740Z,16.27
2022-12-31T19:13:19.854Z,16.27
2022-12-31T19:15:51.587Z,16.27
2022-12-31T19:18:18.759Z,16.26
2022-12-31T19:20:45.861Z,16.26
2022-12-31T19:23:17.839Z,16.25
2022-12-31T19:25:45.133Z,16.26
2022-12-31T19:28:15.699Z,16.25
2022-12-31T19:30:42.541Z,16.25
2022-12-31T19:33:09.165Z,16.26
2022-12-31T19:35:35.724Z,16.26
2022-12-31T19:38:02.581Z,16.27
2022-12-31T19:40:30.557Z,16.28
2022-12-31T19:42:57.698Z,16.28
2022-12-31T19:45:28.676Z,16.28
2022-12-31T19:47:56.472Z,16.29
2022-12-31T19:50:25.521Z,16.28
2022-12-31T19:52:54.798Z,16.28
2022-12-31T19:55:22.249Z,16.27
2022-12-31T19:57:49.366Z,16.27
2022-12-31T20:00:17.743Z,16.25
2022-12-31T20:02:46.054Z,16.26
2022-12-31T20:05:14.540Z,16.25
2022-12-31T20:07:41.361Z,16.24
2022-12-31T20:10:08.377Z,16.24
2022-12-31T20:12:40.580Z,16.22
2022-12-31T20:15:10.715Z,16.24
2022-12-31T20:17:37.285Z,16.23
2022-12-31T20:20:05.227Z,16.22
2022-12-31T20:22:31.845Z,16.22
2022-12-31T20:24:58.495Z,16.22
2022-12-31T20:27:25.113Z,16.22
2022-12-31T20:29:51.712Z,16.24
2022-12-31T20:32:18.298Z,16.26
2022-12-31T20:34:44.851Z,16.28
2022-12-31T20:37:11.422Z,16.28
2022-12-31T20:39:38.027Z,16.28
2022-12-31T20:42:04.723Z,16.29
2022-12-31T20:44:31.290Z,16.31
2022-12-31T20:46:57.828Z,16.29
2022-12-31T20:49:52.127Z,16.33
2022-12-31T20:52:10.897Z,16.33
2022-12-31T20:54:37.527Z,16.33
2022-12-31T20:57:04.266Z,16.34
2022-12-31T20:59:30.976Z,16.33
2022-12-31T21:02:20.987Z,16.33
2022-12-31T21:04:45.457Z,16.34
2022-12-31T21:07:12.179Z,16.32
2022-12-31T21:09:38.836Z,16.34
2022-12-31T21:12:24.076Z,16.33
2022-12-31T21:14:50.639Z,16.32
2022-12-31T21:17:17.200Z,16.34
2022-12-31T21:19:43.751Z,16.34
2022-12-31T21:22:10.313Z,16.33
2022-12-31T21:24:36.950Z,16.34
2022-12-31T21:27:03.562Z,16.34
2022-12-31T21:29:34.565Z,16.33
2022-12-31T21:32:02.151Z,16.32
2022-12-31T21:34:28.783Z,16.32
2022-12-31T21:36:55.350Z,16.34
2022-12-31T21:39:21.903Z,16.33
2022-12-31T21:41:51.335Z,16.31
2022-12-31T21:44:20.844Z,16.32
2022-12-31T21:47:24.846Z,16.33
2022-12-31T21:49:35.510Z,16.32
2022-12-31T21:52:20.542Z,16.32
2022-12-31T21:55:05.335Z,16.30
2022-12-31T21:57:46.231Z,16.30
2022-12-31T22:00:42.689Z,16.29
2022-12-31T22:03:31.643Z,16.30
2022-12-31T22:06:10.194Z,16.31
2022-12-31T22:08:37.170Z,16.33
2022-12-31T22:11:03.873Z,16.34
2022-12-31T22:13:30.566Z,16.34
2022-12-31T22:16:04.177Z,16.35
2022-12-31T22:18:34.343Z,16.36
2022-12-31T22:21:17.411Z,16.36
2022-12-31T22:23:45.625Z,16.38
2022-12-31T22:26:14.633Z,16.39
2022-12-31T22:28:42.225Z,16.39
2022-12-31T22:31:16.953Z,16.39
2022-12-31T22:33:44.237Z,16.40
2022-12-31T22:36:13.388Z,16.40
2022-12-31T22:38:40.160Z,16.40
2022-12-31T22:41:11.060Z,16.38
2022-12-31T22:43:41.085Z,16.39
2022-12-31T22:46:19.076Z,16.39
2022-12-31T22:48:45.879Z,16.38
2022-12-31T22:51:13.715Z,16.35
2022-12-31T22:53:41.383Z,16.36
2022-12-31T22:56:08.299Z,16.35
2022-12-31T22:58:34.881Z,16.36
2022-12-31T23:01:05.237Z,16.36
2022-12-31T23:03:31.986Z,16.35
2022-12-31T23:05:58.628Z,16.37
2022-12-31T23:08:25.189Z,16.39
2022-12-31T23:11:11.442Z,16.39
2022-12-31T23:14:00.969Z,16.39
2022-12-31T23:16:48.234Z,16.39
2022-12-31T23:19:34.647Z,16.39
2022-12-31T23:22:19.899Z,16.38
2022-12-31T23:24:46.468Z,16.39
2022-12-31T23:27:13.317Z,16.39
2022-12-31T23:29:46.117Z,16.37
2022-12-31T23:32:15.529Z,16.39
2022-12-31T23:34:42.746Z,16.36
2022-12-31T23:37:09.348Z,16.36
2022-12-31T23:39:35.936Z,16.36
2022-12-31T23:42:02.558Z,16.36
2022-12-31T23:44:29.330Z,16.37
2022-12-31T23:46:56.201Z,16.36
2022-12-31T23:49:22.813Z,16.37
2022-12-31T23:51:49.451Z,16.38
2022-12-31T23:54:16.043Z,16.40
2022-12-31T23:56:42.665Z,16.42
2022-12-31T23:59:09.917Z,16.43
